< < Back
Terminal Aerodrome Forecast


Current Version              Previous Versions:   1  2  3  4  5  6  7  8  9  

Terminal Aerodrome Forecast

648
FTUS42 KFFC 011001 AAB
TAFATL
TAF AMD
KATL 011001Z 0110/0212 35005KT P6SM FEW250
     FM011100 01006KT P6SM SCT250
     FM011600 05008KT P6SM SCT040
     FM012200 02006KT P6SM SCT050
     FM020300 35006KT P6SM FEW250=

Latest METAR

310
SAUS70 KWBC 011200 RRU
MTRATL
METAR KATL 011152Z 04005KT 10SM BKN070 BKN110 BKN250 24/17 A2997 RMK AO2
SLP139 70010 T02440172 10256 20228 53012


USA.gov is the U.S. government's official web portal to all federal, state and local government web resources and services.